Latest Weather Observations for Shay Gap

IDW60801

Issued at 9:35 pm WST Friday 22 August 2014 (issued every 30 minutes, with the page automatically refreshed every 10 minutes)

About weather observations | Map of weather stations | Latest weather observations for WA | Other Formats
Station Details ID: 504045 Name: SHAY GAP Lat: -20.43 Lon: 120.13 Height: 173.83 m
Data from the previous 72 hours. | See also: Recent months for locations in Western Australia
Date/Time
WST
Temp
°C
App
Temp
°C
Dew
Point
Rel
Hum
%
Delta-T
°C
Wind Press
QNH
hPa
Press
MSL
hPa
Rain
since 9 am
mm
Dir
 
Spd
km/h
Gust
km/h
Spd
kts
Gust
kts
22/09:30pm 18.4 15.1 2.7 35 7.3 N 9 11 5 6 1018.4 1017.8 0.0
22/09:00pm 20.9 19.2 1.7 28 8.9 N 0 0 0 0 1018.3 1017.7 0.0
22/08:30pm 20.9 19.1 1.2 27 9.1 CALM 0 4 0 2 1018.1 1017.5 0.0
22/08:00pm 21.6 18.4 0.8 25 9.5 N 7 7 4 4 1017.9 1017.3 0.0
22/07:30pm 22.8 19.2 0.6 23 10.2 N 9 11 5 6 1017.5 1016.9 0.0
22/07:00pm 23.6 19.9 0.0 21 10.8 N 9 9 5 5 1017.1 1016.4 0.0
22/06:30pm 24.4 20.7 0.0 20 11.3 N 9 11 5 6 1016.4 1015.8 0.0
22/06:00pm 25.3 20.8 0.0 19 11.8 N 13 15 7 8 1016.0 1015.4 0.0
22/05:30pm 27.7 21.9 -1.3 15 13.4 N 19 24 10 13 1015.6 1015.0 0.0
22/05:00pm 29.3 22.5 -1.9 13 14.4 N 24 32 13 17 1015.3 1014.7 0.0
22/04:30pm 30.2 23.5 -1.2 13 14.8 N 24 30 13 16 1014.8 1014.2 0.0
22/04:00pm 30.8 24.1 -0.8 13 15.1 N 24 32 13 17 1014.6 1014.0 0.0
22/03:30pm 31.6 25.7 -2.4 11 15.9 NE 19 26 10 14 1014.4 1013.8 0.0
22/03:00pm 31.8 26.3 -2.3 11 16.0 NNE 17 28 9 15 1014.4 1013.8 0.0
22/02:30pm 32.2 25.8 -2.0 11 16.1 ENE 22 39 12 21 1014.6 1014.0 0.0
22/02:00pm 31.7 24.3 -3.6 10 16.2 NE 26 39 14 21 1014.9 1014.3 0.0
22/01:30pm 31.7 24.8 -2.3 11 15.9 NE 24 35 13 19 1015.1 1014.5 0.0
22/01:00pm 31.1 23.8 -2.8 11 15.7 ENE 26 37 14 20 1015.4 1014.8 0.0
22/12:30pm 31.0 22.8 -4.1 10 15.9 NE 30 39 16 21 1015.9 1015.3 0.0
22/12:00pm 30.4 23.0 -3.3 11 15.3 E 26 35 14 19 1016.4 1015.8 0.0
22/11:30am 30.5 22.8 -3.3 11 15.4 E 28 39 15 21 1016.5 1015.9 0.0
22/11:00am 29.1 23.2 -1.1 14 14.1 ESE 20 26 11 14 1017.3 1016.6 0.0
22/10:30am 27.7 21.9 -0.4 16 13.2 ESE 20 30 11 16 1017.8 1017.2 0.0
22/10:00am 26.5 20.0 0.3 18 12.3 SE 24 30 13 16 1018.1 1017.5 0.0
22/09:30am 25.0 19.7 1.8 22 11.1 SE 19 28 10 15 1018.4 1017.8 0.0
22/09:00am 23.4 17.9 1.7 24 10.2 SSE 20 26 11 14 1018.6 1018.0 0.0
22/08:30am 21.7 16.3 1.4 26 9.4 SSE 19 26 10 14 1018.3 1017.7 0.0
22/08:00am 19.0 14.2 2.8 34 7.6 SSE 17 20 9 11 1018.2 1017.6 0.0
22/07:30am 17.8 12.9 2.2 35 7.1 SSE 17 20 9 11 1017.9 1017.3 0.0
22/07:00am 15.4 10.7 2.9 43 5.7 SSE 17 17 9 9 1017.6 1017.0 0.0
22/06:30am 14.7 9.4 2.9 45 5.3 SSE 20 22 11 12 1017.2 1016.5 0.0
22/06:00am 13.1 8.4 3.2 51 4.4 SSE 17 19 9 10 1016.8 1016.1 0.0
22/05:30am 13.5 9.5 3.0 49 4.7 SSE 13 15 7 8 1016.3 1015.7 0.0
22/05:00am 15.3 11.2 2.5 42 5.8 SSE 13 15 7 8 1016.1 1015.5 0.0
22/04:30am 14.5 10.8 2.1 43 5.5 SSE 11 15 6 8 1015.8 1015.2 0.0
22/04:00am 17.1 13.3 1.5 35 7.0 S 11 13 6 7 1015.6 1015.0 0.0
22/03:30am 17.2 12.9 1.2 34 7.1 S 13 13 7 7 1015.5 1014.9 0.0
22/03:00am 17.7 14.1 0.8 32 7.5 S 9 11 5 6 1015.6 1015.0 0.0
22/02:30am 18.2 13.7 -0.1 29 8.0 SSW 13 15 7 8 1015.7 1015.1 0.0
22/02:00am 17.7 14.0 2.1 35 7.1 SSW 11 13 6 7 1016.0 1015.4 0.0
22/01:30am 17.5 13.0 2.3 36 7.0 S 15 17 8 9 1016.1 1015.5 0.0
22/01:00am 18.1 14.7 3.9 39 6.7 S 11 13 6 7 1016.3 1015.7 0.0
22/12:30am 17.7 14.1 2.8 37 6.9 SSW 11 13 6 7 1016.5 1015.9 0.0
22/12:00am 17.9 14.5 1.8 34 7.3 SW 9 11 5 6 1016.5 1015.9 0.0
 
Date/Time
WST
Temp
°C
App
Temp
°C
Dew
Point
Rel
Hum
%
Delta-T
°C
Wind Press
QNH
hPa
Press
MSL
hPa
Rain
since 9 am
mm
Dir
 
Spd
km/h
Gust
km/h
Spd
kts
Gust
kts
21/11:30pm 19.1 15.7 1.6 31 8.0 WSW 9 11 5 6 1016.8 1016.1 0.0
21/11:00pm 17.8 13.7 2.5 36 7.0 WSW 13 15 7 8 1017.0 1016.3 0.0
21/10:30pm 18.2 13.9 3.3 37 7.0 WSW 15 17 8 9 1016.9 1016.2 0.0
21/10:00pm 17.8 13.6 3.7 39 6.6 WSW 15 15 8 8 1017.0 1016.3 0.0
21/09:30pm 18.0 14.5 5.6 44 6.1 W 13 13 7 7 1016.9 1016.2 0.0
21/09:00pm 19.0 15.4 5.1 40 6.8 W 13 17 7 9 1017.0 1016.3 0.0
21/08:30pm 19.8 16.3 3.5 34 7.8 WNW 11 13 6 7 1016.8 1016.1 0.0
21/08:00pm 19.9 16.6 2.7 32 8.1 W 9 13 5 7 1016.5 1015.9 0.0
21/07:30pm 21.0 16.6 2.8 30 8.6 WNW 15 17 8 9 1016.3 1015.7 0.0
21/07:00pm 22.0 17.3 1.1 25 9.7 NW 15 17 8 9 1015.9 1015.3 0.0
21/06:30pm 22.9 18.1 0.1 22 10.4 NW 15 17 8 9 1015.5 1014.9 0.0
21/06:00pm 24.5 19.9 -1.3 18 11.6 NNW 13 15 7 8 1015.1 1014.5 0.0
21/05:30pm 27.0 21.5 -1.8 15 13.1 N 17 20 9 11 1014.8 1014.2 0.0
21/05:00pm 28.3 22.2 -2.7 13 14.0 N 20 26 11 14 1014.7 1014.1 0.0
21/04:30pm 29.2 23.0 -3.1 12 14.6 N 20 26 11 14 1014.7 1014.1 0.0
21/04:00pm 29.5 23.4 -4.0 11 15.0 N 19 30 10 16 1014.5 1013.9 0.0
21/03:30pm 30.0 23.9 -2.5 12 15.0 NNW 20 26 11 14 1014.2 1013.6 0.0
21/03:00pm 31.0 25.0 -1.7 12 15.4 NNW 20 26 11 14 1014.1 1013.5 0.0
21/02:30pm 30.3 25.2 -2.2 12 15.1 N 15 20 8 11 1014.1 1013.5 0.0
21/02:00pm 29.7 24.0 -3.9 11 15.1 NW 17 24 9 13 1014.3 1013.7 0.0
21/01:30pm 30.5 25.6 -3.3 11 15.4 ENE 13 19 7 10 1014.6 1014.0 0.0
21/01:00pm 29.4 25.6 -4.1 11 14.9 WNW 7 11 4 6 1014.9 1014.3 0.0
21/12:30pm 29.0 24.1 -3.2 12 14.5 NNW 13 20 7 11 1015.5 1014.9 0.0
21/12:00pm 28.0 24.5 -3.0 13 13.9 E 6 9 3 5 1016.0 1015.4 0.0
21/11:30am 27.6 23.5 -3.3 13 13.8 ENE 9 15 5 8 1016.6 1016.0 0.0
21/11:00am 26.8 22.7 -2.9 14 13.2 S 9 17 5 9 1017.0 1016.3 0.0
21/10:30am 26.2 21.9 -1.6 16 12.6 SSE 11 17 6 9 1017.3 1016.6 0.0
21/10:00am 25.5 20.9 -1.3 17 12.2 SSE 13 19 7 10 1017.5 1016.9 0.0
21/09:30am 23.9 19.4 -0.4 20 11.1 SSE 13 20 7 11 1017.7 1017.1 0.0
21/09:00am 22.5 17.9 -0.9 21 10.4 SSE 13 17 7 9 1017.6 1017.0 -
21/08:30am 20.3 15.9 0.2 26 9.0 SSE 13 15 7 8 1017.4 1016.7 -
21/08:00am 19.0 15.1 1.1 30 8.1 SSE 11 13 6 7 1017.0 1016.3 -
21/07:30am 16.4 12.7 2.4 39 6.4 SE 11 13 6 7 1016.8 1016.1 -
21/07:00am 14.4 10.2 1.7 42 5.6 SE 13 13 7 7 1016.4 1015.8 -
21/06:30am 13.9 9.4 2.2 45 5.2 SSE 15 17 8 9 1016.0 1015.4 -
21/06:00am 14.1 9.6 2.0 44 5.3 S 15 17 8 9 1015.7 1015.1 -
21/05:30am 14.7 9.7 1.6 41 5.8 S 17 17 9 9 1015.5 1014.9 -
21/05:00am 13.7 9.7 2.6 47 4.9 S 13 13 7 7 1015.4 1014.8 -
21/04:30am 14.0 10.0 2.6 46 5.1 S 13 13 7 7 1015.2 1014.6 -
21/04:00am 14.7 11.5 2.9 45 5.3 S 9 11 5 6 1015.1 1014.5 -
21/03:30am 14.0 10.3 2.6 46 5.1 SSW 11 15 6 8 1015.0 1014.4 -
21/03:00am 15.3 11.2 2.5 42 5.8 SSW 13 15 7 8 1015.2 1014.6 0.0
21/02:30am 14.6 11.3 2.2 43 5.5 S 9 9 5 5 1015.4 1014.8 -
21/02:00am 15.7 12.3 1.8 39 6.2 S 9 13 5 7 1015.5 1014.9 -
21/01:30am 15.1 10.9 1.6 40 6.0 S 13 15 7 8 1015.7 1015.1 -
21/01:00am 15.1 11.2 0.9 38 6.2 SSW 11 13 6 7 1016.0 1015.4 -
21/12:30am 16.6 12.6 0.3 33 7.1 SW 11 11 6 6 1016.2 1015.6 -
21/12:00am 16.6 12.4 -1.0 30 7.4 WSW 11 13 6 7 1016.4 1015.8 -
 
Date/Time
WST
Temp
°C
App
Temp
°C
Dew
Point
Rel
Hum
%
Delta-T
°C
Wind Press
QNH
hPa
Press
MSL
hPa
Rain
since 9 am
mm
Dir
 
Spd
km/h
Gust
km/h
Spd
kts
Gust
kts
20/11:30pm 17.8 13.7 -0.5 29 7.9 WSW 11 13 6 7 1016.4 1015.8 -
20/11:00pm 17.7 13.2 -0.1 30 7.7 WSW 13 15 7 8 1016.5 1015.9 -
20/10:30pm 18.0 14.0 0.2 30 7.8 W 11 15 6 8 1016.6 1016.0 -
20/10:00pm 17.2 13.6 0.8 33 7.2 W 9 13 5 7 1016.6 1016.0 -
20/09:30pm 18.1 14.2 1.2 32 7.6 NW 11 17 6 9 1016.8 1016.1 -
20/09:00pm 18.7 14.4 1.2 31 7.9 NNW 13 15 7 8 1016.6 1016.0 0.0
20/08:30pm 18.5 14.4 2.4 34 7.4 NW 13 17 7 9 1016.4 1015.8 -
20/08:00pm 19.0 15.2 2.0 32 7.8 NNW 11 13 6 7 1016.2 1015.6 -
20/07:30pm 19.3 15.0 0.8 29 8.3 NNW 13 13 7 7 1016.0 1015.4 -
20/07:00pm 21.0 16.2 0.2 25 9.4 NNW 15 15 8 8 1015.7 1015.1 -
20/06:30pm 22.0 17.4 -0.7 22 10.1 NNW 13 17 7 9 1015.5 1014.9 -
20/06:00pm 24.2 19.0 -2.4 17 11.7 NNW 15 19 8 10 1015.1 1014.5 -
20/05:30pm 26.2 19.6 -3.4 14 13.0 N 22 32 12 17 1014.9 1014.3 -
20/05:00pm 27.8 21.2 -3.1 13 13.8 N 22 28 12 15 1014.6 1014.0 -
20/04:30pm 28.4 21.6 -4.9 11 14.5 N 22 30 12 16 1014.5 1013.9 -
20/04:00pm 29.7 23.6 -3.9 11 15.1 N 19 24 10 13 1014.3 1013.7 -
20/03:30pm 29.5 22.4 -4.0 11 15.0 N 24 35 13 19 1014.3 1013.7 -
20/03:00pm 29.7 25.2 -6.5 9 15.5 W 9 17 5 9 1014.1 1013.5 -
20/02:30pm 30.1 26.0 -6.2 9 15.7 SSE 7 13 4 7 1014.4 1013.8 -
20/02:00pm 29.6 24.0 -6.6 9 15.5 NE 15 28 8 15 1014.9 1014.3 -
20/01:30pm 29.1 24.3 -5.6 10 15.0 ESE 11 20 6 11 1015.2 1014.6 -
20/01:00pm 28.9 24.9 -5.7 10 14.9 NNW 7 13 4 7 1015.9 1015.3 -
20/12:30pm 28.8 23.6 -5.8 10 14.9 NNW 13 19 7 10 1016.4 1015.8 -
20/12:00pm 27.9 23.6 -5.2 11 14.3 ESE 9 19 5 10 1017.0 1016.3 -
20/11:30am 27.6 23.7 -4.3 12 14.0 ESE 7 13 4 7 1017.5 1016.9 0.0
20/11:00am 27.6 23.6 -2.3 14 13.5 ESE 9 20 5 11 1017.7 1017.1 0.0
20/10:30am 26.7 22.1 -1.2 16 12.8 SE 13 22 7 12 1017.9 1017.3 0.0
20/10:00am 25.7 21.6 -0.4 18 12.1 SSE 11 15 6 8 1018.2 1017.6 0.0
20/09:30am 24.2 19.3 -0.2 20 11.2 SSE 15 19 8 10 1018.3 1017.7 0.0
20/09:00am 22.5 17.7 0.4 23 10.1 SSE 15 17 8 9 1018.2 1017.6 0.0
20/08:30am 21.3 16.5 -0.1 24 9.6 SSE 15 17 8 9 1018.1 - 0.0
20/08:00am 19.8 15.4 0.3 27 8.7 SSE 13 15 7 8 1017.9 1017.3 0.0
20/07:30am 17.6 13.8 1.6 34 7.2 SSE 11 11 6 6 1017.7 - 0.0
20/07:00am 14.3 9.9 0.5 39 5.9 SSE 13 15 7 8 1017.5 1016.9 0.0
20/06:30am 13.4 8.9 -0.6 38 5.8 SSE 13 15 7 8 1017.2 - 0.0
20/06:00am 14.8 10.7 -0.5 35 6.4 S 11 13 6 7 1017.0 1016.3 0.0
20/05:30am 14.8 10.2 -0.9 34 6.6 S 13 15 7 8 1016.6 - 0.0
20/05:00am 16.6 12.3 -1.5 29 7.6 S 11 13 6 7 1016.3 1015.7 0.0
20/04:30am 16.2 11.6 -1.4 30 7.4 SSW 13 17 7 9 1016.2 - 0.0
20/04:00am 15.5 10.5 -1.1 32 6.9 SSW 15 19 8 10 1016.1 1015.5 0.0
20/03:30am 15.3 10.8 -0.4 34 6.7 SW 13 15 7 8 1016.1 - 0.0
20/03:00am 15.2 10.7 -0.1 35 6.5 SW 13 15 7 8 1016.3 1015.7 0.0
20/02:30am 14.1 10.5 0.7 40 5.8 E 9 13 5 7 1016.4 - 0.0
20/02:00am 15.2 11.3 1.0 38 6.2 E 11 13 6 7 1016.5 1015.9 0.0
20/01:30am 15.8 13.2 0.8 36 6.6 WSW 4 7 2 4 1016.4 - 0.0
20/01:00am 15.6 11.2 0.6 36 6.5 WSW 13 15 7 8 1016.8 1016.1 0.0
20/12:30am 16.1 11.4 1.0 36 6.6 WSW 15 17 8 9 1017.0 - 0.0
20/12:00am 16.1 13.3 1.8 38 6.4 W 6 9 3 5 1017.4 1016.7 0.0
 
Date/Time
WST
Temp
°C
App
Temp
°C
Dew
Point
Rel
Hum
%
Delta-T
°C
Wind Press
QNH
hPa
Press
MSL
hPa
Rain
since 9 am
mm
Dir
 
Spd
km/h
Gust
km/h
Spd
kts
Gust
kts
19/11:30pm 17.0 13.4 3.0 39 6.5 WSW 11 15 6 8 1017.7 - 0.0
19/11:00pm 17.4 12.8 1.8 35 7.0 WSW 15 19 8 10 1017.9 1017.3 0.0
19/10:30pm 16.7 11.6 0.8 34 7.0 WSW 17 20 9 11 1017.9 - 0.0
19/10:00pm 17.3 13.5 1.7 35 7.0 WSW 11 13 6 7 1017.9 1017.3 0.0

Other Formats:

Comma delimited format used in spreadsheet applications
http://www.bom.gov.au/fwo/IDW60801/IDW60801.99311.axf

JavaScript Object Notation format (JSON) in row-major order
http://www.bom.gov.au/fwo/IDW60801/IDW60801.99311.json